Time;durP1;ratioP1;P1;durP2;ratioP2;P2;SDS_P1;SDS_P2;PMS_P1;PMS_P2;Temp;Humidity;BMP_temperature;BMP_pressure;BME280_temperature;BME280_humidity;BME280_pressure;Samples;Min_cycle;Max_cycle;Signal;HPM_P1;HPM_P2
2021/06/18 00:01:52;;;;;;;39.53;35.42;;;;;;;;;;4954321;29;20054;-62
2021/06/18 00:04:38;;;;;;;42.10;37.85;;;;;;;;;;4955280;28;20127;-62
2021/06/18 00:07:23;;;;;;;43.75;39.30;;;;;;;;;;4955205;28;20503;-62
2021/06/18 00:10:09;;;;;;;44.55;39.85;;;;;;;;;;4952857;28;20105;-62
2021/06/18 00:12:54;;;;;;;44.08;39.47;;;;;;;;;;4953246;28;20050;-62
2021/06/18 00:15:40;;;;;;;46.42;41.85;;;;;;;;;;4950648;28;20050;-62
2021/06/18 00:18:25;;;;;;;47.40;42.45;;;;;;;;;;4955394;28;20048;-62
2021/06/18 00:21:11;;;;;;;47.47;42.33;;;;;;;;;;4951148;28;20178;-62
2021/06/18 00:23:56;;;;;;;51.28;46.00;;;;;;;;;;4954920;28;20047;-62
2021/06/18 00:26:41;;;;;;;51.60;46.08;;;;;;;;;;4955013;28;20070;-62
2021/06/18 00:29:27;;;;;;;49.72;44.58;;;;;;;;;;4954693;28;20066;-62
2021/06/18 00:32:12;;;;;;;53.95;48.10;;;;;;;;;;4954723;28;20054;-62
2021/06/18 00:34:58;;;;;;;54.28;48.75;;;;;;;;;;4954933;28;20485;-61
2021/06/18 00:37:43;;;;;;;52.58;47.15;;;;;;;;;;4954808;28;20054;-61
2021/06/18 00:40:29;;;;;;;57.08;50.95;;;;;;;;;;4952503;28;20058;-62
2021/06/18 00:43:14;;;;;;;53.40;48.05;;;;;;;;;;4954680;28;20220;-62
2021/06/18 00:45:59;;;;;;;52.85;47.35;;;;;;;;;;4954696;28;20062;-62
2021/06/18 00:48:45;;;;;;;57.47;51.33;;;;;;;;;;4954745;28;20459;-61
2021/06/18 00:51:30;;;;;;;54.92;49.33;;;;;;;;;;4951437;29;20059;-62
2021/06/18 00:54:27;;;;;;;59.67;53.38;;;;;;;;;;4954476;28;20058;-61
2021/06/18 00:57:13;;;;;;;57.15;50.67;;;;;;;;;;4954097;28;20057;-61
2021/06/18 00:59:59;;;;;;;56.90;50.03;;;;;;;;;;4953141;29;20070;-61
2021/06/18 01:02:44;;;;;;;55.72;50.00;;;;;;;;;;5010521;23;20061;-61
2021/06/18 01:05:29;;;;;;;57.95;51.75;;;;;;;;;;4992928;28;20108;-62
2021/06/18 01:08:24;;;;;;;58.42;52.15;;;;;;;;;;4992745;28;20150;-62
2021/06/18 01:11:18;;;;;;;60.63;52.15;;;;;;;;;;4992159;28;20128;-62
2021/06/18 01:14:09;;;;;;;55.85;50.10;;;;;;;;;;4973851;28;20066;-62
2021/06/18 01:16:57;;;;;;;56.72;50.90;;;;;;;;;;4973540;28;20420;-62
2021/06/18 01:19:51;;;;;;;57.60;51.33;;;;;;;;;;4973092;28;20181;-61
2021/06/18 01:22:36;;;;;;;52.88;47.20;;;;;;;;;;4971809;28;20073;-62
2021/06/18 01:25:40;;;;;;;53.03;47.63;;;;;;;;;;4973731;28;20125;-61
2021/06/18 01:28:37;;;;;;;59.10;51.67;;;;;;;;;;4973724;28;20046;-61
2021/06/18 01:31:23;;;;;;;55.40;49.72;;;;;;;;;;4972949;28;20088;-62
2021/06/18 01:34:11;;;;;;;60.58;54.00;;;;;;;;;;4992212;28;20064;-62
2021/06/18 01:36:56;;;;;;;57.45;50.88;;;;;;;;;;4992629;28;20078;-62
2021/06/18 01:39:42;;;;;;;57.15;51.08;;;;;;;;;;4992187;28;20578;-62
2021/06/18 01:42:27;;;;;;;59.63;53.03;;;;;;;;;;4987710;28;20053;-61
2021/06/18 01:45:13;;;;;;;59.15;52.70;;;;;;;;;;4973806;28;20107;-62
2021/06/18 01:47:58;;;;;;;60.10;53.53;;;;;;;;;;4973476;28;20054;-62
2021/06/18 01:50:44;;;;;;;59.15;52.20;;;;;;;;;;4972591;28;20060;-62
2021/06/18 01:53:30;;;;;;;57.83;51.78;;;;;;;;;;4972978;28;20042;-62
2021/06/18 01:56:16;;;;;;;56.83;50.78;;;;;;;;;;4985716;28;20058;-61
2021/06/18 01:59:01;;;;;;;56.80;50.90;;;;;;;;;;4985989;28;20043;-62
2021/06/18 02:01:47;;;;;;;57.28;51.22;;;;;;;;;;4972344;28;20074;-62
2021/06/18 02:04:33;;;;;;;59.10;52.00;;;;;;;;;;4972109;28;20095;-62
2021/06/18 02:07:19;;;;;;;58.63;52.30;;;;;;;;;;4973056;28;20054;-62
2021/06/18 02:10:08;;;;;;;51.97;46.30;;;;;;;;;;4974871;28;20420;-62
2021/06/18 02:12:53;;;;;;;55.40;49.60;;;;;;;;;;4975906;28;20144;-61
2021/06/18 02:15:39;;;;;;;57.15;51.08;;;;;;;;;;4976723;28;20043;-62
2021/06/18 02:18:25;;;;;;;55.13;49.33;;;;;;;;;;4975719;28;20050;-62
2021/06/18 02:21:10;;;;;;;58.35;50.10;;;;;;;;;;4975093;28;20605;-62
2021/06/18 02:23:56;;;;;;;54.78;49.03;;;;;;;;;;4975522;28;20070;-62
2021/06/18 02:26:41;;;;;;;58.25;52.03;;;;;;;;;;4975306;28;20053;-62
2021/06/18 02:29:27;;;;;;;60.97;54.55;;;;;;;;;;4975037;28;20047;-62
2021/06/18 02:32:13;;;;;;;64.03;54.33;;;;;;;;;;4974845;28;20102;-61
2021/06/18 02:34:59;;;;;;;60.90;54.47;;;;;;;;;;4976295;28;20106;-61
2021/06/18 02:37:44;;;;;;;61.33;54.65;;;;;;;;;;4976108;28;20421;-62
2021/06/18 02:40:29;;;;;;;60.13;53.78;;;;;;;;;;4976036;28;20051;-62
2021/06/18 02:43:14;;;;;;;60.67;50.53;;;;;;;;;;4975619;28;20413;-62
2021/06/18 02:46:00;;;;;;;60.97;53.72;;;;;;;;;;4976130;28;20564;-62
2021/06/18 02:48:46;;;;;;;64.60;56.42;;;;;;;;;;4976055;28;20057;-62
2021/06/18 02:51:34;;;;;;;63.42;56.75;;;;;;;;;;4974348;28;20061;-62
2021/06/18 02:54:26;;;;;;;62.75;56.25;;;;;;;;;;4973859;28;20055;-61
2021/06/18 02:57:15;;;;;;;61.78;55.05;;;;;;;;;;4974712;28;20166;-61
2021/06/18 03:00:06;;;;;;;60.78;54.28;;;;;;;;;;4974500;28;20190;-61
2021/06/18 03:02:54;;;;;;;66.70;59.55;;;;;;;;;;4974726;28;20549;-62
2021/06/18 03:05:39;;;;;;;70.15;60.72;;;;;;;;;;4956286;29;20045;-61
2021/06/18 03:08:25;;;;;;;62.28;54.50;;;;;;;;;;4956453;29;20047;-62
2021/06/18 03:11:11;;;;;;;59.35;52.40;;;;;;;;;;4968714;28;20074;-62
2021/06/18 03:13:57;;;;;;;73.07;63.03;;;;;;;;;;4975575;28;20186;-62
2021/06/18 03:16:42;;;;;;;67.40;59.28;;;;;;;;;;4975467;28;20054;-62
2021/06/18 03:19:28;;;;;;;66.72;59.58;;;;;;;;;;4975231;28;20122;-62
2021/06/18 03:22:15;;;;;;;72.40;63.03;;;;;;;;;;4974350;28;20057;-62
2021/06/18 03:25:02;;;;;;;73.47;60.80;;;;;;;;;;4974506;28;20049;-62
2021/06/18 03:27:47;;;;;;;77.38;63.53;;;;;;;;;;4974642;28;20043;-62
2021/06/18 03:30:33;;;;;;;67.90;58.03;;;;;;;;;;4974087;28;20517;-62
2021/06/18 03:33:18;;;;;;;68.13;57.65;;;;;;;;;;4975038;28;20497;-62
2021/06/18 03:36:04;;;;;;;68.75;60.22;;;;;;;;;;4973390;28;20083;-62
2021/06/18 03:38:49;;;;;;;64.10;57.15;;;;;;;;;;4975167;28;20046;-61
2021/06/18 03:41:35;;;;;;;66.72;59.65;;;;;;;;;;4974642;28;20621;-62
2021/06/18 03:44:20;;;;;;;71.43;62.50;;;;;;;;;;4973200;28;20058;-62
2021/06/18 03:47:06;;;;;;;78.63;64.53;;;;;;;;;;4974637;28;20131;-61
2021/06/18 03:49:51;;;;;;;73.43;64.30;;;;;;;;;;4973732;28;20050;-62
2021/06/18 03:52:36;;;;;;;71.95;63.90;;;;;;;;;;4974626;28;20050;-62
2021/06/18 03:55:21;;;;;;;78.20;67.63;;;;;;;;;;4973074;28;20046;-62
2021/06/18 03:58:06;;;;;;;77.57;65.32;;;;;;;;;;4974797;28;20058;-62
2021/06/18 04:00:52;;;;;;;72.65;64.38;;;;;;;;;;4973227;28;20129;-61
2021/06/18 04:03:37;;;;;;;71.97;64.07;;;;;;;;;;4974382;28;20054;-62
2021/06/18 04:06:22;;;;;;;70.10;62.38;;;;;;;;;;4973059;28;20053;-62
2021/06/18 04:09:07;;;;;;;69.65;61.58;;;;;;;;;;4974411;28;20047;-62
2021/06/18 04:11:52;;;;;;;67.13;59.67;;;;;;;;;;4973477;28;20061;-62
2021/06/18 04:14:38;;;;;;;70.07;57.25;;;;;;;;;;4973486;28;20051;-62
2021/06/18 04:17:23;;;;;;;68.78;60.72;;;;;;;;;;4973221;28;20058;-62
2021/06/18 04:20:09;;;;;;;70.05;60.40;;;;;;;;;;4972951;28;20122;-62
2021/06/18 04:22:54;;;;;;;67.78;60.35;;;;;;;;;;4973193;28;20056;-61
2021/06/18 04:25:40;;;;;;;68.00;60.20;;;;;;;;;;4973509;28;20182;-62
2021/06/18 04:28:25;;;;;;;73.40;63.28;;;;;;;;;;4954786;29;20066;-62
2021/06/18 04:31:10;;;;;;;66.70;59.45;;;;;;;;;;4953953;28;20588;-62
2021/06/18 04:33:56;;;;;;;62.20;55.42;;;;;;;;;;4954631;28;20066;-62
2021/06/18 04:36:41;;;;;;;63.72;56.88;;;;;;;;;;4961484;28;20038;-62
2021/06/18 04:39:27;;;;;;;67.65;58.88;;;;;;;;;;4972934;28;20066;-61
2021/06/18 04:42:12;;;;;;;61.45;54.80;;;;;;;;;;4973872;28;20061;-62
2021/06/18 04:44:58;;;;;;;63.33;55.15;;;;;;;;;;4973846;28;20505;-62
2021/06/18 04:47:43;;;;;;;60.67;54.17;;;;;;;;;;4985107;28;20054;-62
2021/06/18 04:50:29;;;;;;;58.45;52.22;;;;;;;;;;4993320;28;20039;-62
2021/06/18 04:53:14;;;;;;;58.38;52.35;;;;;;;;;;4993198;28;20046;-62
2021/06/18 04:56:04;;;;;;;58.33;52.10;;;;;;;;;;4993112;28;20492;-62
2021/06/18 04:58:49;;;;;;;54.80;48.97;;;;;;;;;;4973526;28;20538;-62
2021/06/18 05:01:34;;;;;;;57.30;51.17;;;;;;;;;;4973183;28;20046;-62
2021/06/18 05:04:20;;;;;;;55.35;49.35;;;;;;;;;;4973601;28;20053;-62
2021/06/18 05:07:05;;;;;;;53.42;47.88;;;;;;;;;;4973302;28;20046;-61
2021/06/18 05:09:50;;;;;;;55.25;49.30;;;;;;;;;;4973372;28;20050;-62
2021/06/18 05:12:36;;;;;;;53.42;48.15;;;;;;;;;;4973302;28;20125;-62
2021/06/18 05:15:22;;;;;;;56.40;50.67;;;;;;;;;;4973384;28;20055;-61
2021/06/18 05:18:07;;;;;;;58.55;51.30;;;;;;;;;;4972829;28;20075;-62
2021/06/18 05:20:53;;;;;;;54.00;48.60;;;;;;;;;;4973270;28;20061;-62
2021/06/18 05:23:38;;;;;;;53.95;48.42;;;;;;;;;;4973256;28;20161;-62
2021/06/18 05:26:23;;;;;;;53.33;47.47;;;;;;;;;;4973255;28;20509;-62
2021/06/18 05:29:08;;;;;;;50.58;45.42;;;;;;;;;;4973038;28;20050;-62
2021/06/18 05:31:54;;;;;;;49.83;44.67;;;;;;;;;;4973242;28;20062;-62
2021/06/18 05:34:39;;;;;;;50.67;44.42;;;;;;;;;;4973010;28;20051;-62
2021/06/18 05:37:25;;;;;;;51.13;45.60;;;;;;;;;;4973227;28;20131;-62
2021/06/18 05:40:10;;;;;;;49.95;45.08;;;;;;;;;;4971988;28;20512;-62
2021/06/18 05:42:56;;;;;;;53.72;48.17;;;;;;;;;;4972982;28;20460;-62
2021/06/18 05:45:41;;;;;;;53.60;47.78;;;;;;;;;;4978630;28;20055;-62
2021/06/18 05:48:27;;;;;;;50.78;45.88;;;;;;;;;;4976960;28;20478;-62
2021/06/18 05:51:12;;;;;;;49.00;43.88;;;;;;;;;;4978677;28;20042;-62
2021/06/18 05:53:58;;;;;;;47.28;42.58;;;;;;;;;;4976879;28;20416;-62
2021/06/18 05:56:44;;;;;;;47.75;43.05;;;;;;;;;;4975976;28;20509;-62
2021/06/18 05:59:29;;;;;;;48.92;43.72;;;;;;;;;;4976569;28;20046;-61
2021/06/18 06:02:14;;;;;;;47.65;42.60;;;;;;;;;;4975649;28;20170;-62
2021/06/18 06:04:59;;;;;;;48.78;43.90;;;;;;;;;;4976549;28;20046;-62
2021/06/18 06:07:46;;;;;;;47.50;42.75;;;;;;;;;;4976055;28;20421;-61
2021/06/18 06:10:31;;;;;;;50.33;44.83;;;;;;;;;;4976559;28;20063;-62
2021/06/18 06:13:17;;;;;;;47.28;42.35;;;;;;;;;;4970635;28;20050;-62
2021/06/18 06:16:02;;;;;;;42.47;38.28;;;;;;;;;;4985201;28;20047;-62
2021/06/18 06:18:47;;;;;;;44.72;40.22;;;;;;;;;;4970028;28;20055;-62
2021/06/18 06:21:33;;;;;;;44.42;40.03;;;;;;;;;;4965310;28;20047;-62
2021/06/18 06:24:18;;;;;;;44.65;39.75;;;;;;;;;;4971088;28;20046;-61
2021/06/18 06:27:04;;;;;;;39.97;35.75;;;;;;;;;;4975456;28;20054;-62
2021/06/18 06:29:50;;;;;;;40.20;35.75;;;;;;;;;;4976143;28;20516;-61
2021/06/18 06:32:35;;;;;;;43.80;39.38;;;;;;;;;;4976153;28;20053;-61
2021/06/18 06:35:24;;;;;;;42.47;37.95;;;;;;;;;;4975876;28;20101;-62
2021/06/18 06:38:09;;;;;;;39.30;35.17;;;;;;;;;;4976095;28;20449;-62
2021/06/18 06:40:55;;;;;;;36.25;32.33;;;;;;;;;;4975846;28;20054;-61
2021/06/18 06:43:41;;;;;;;34.97;31.38;;;;;;;;;;4976632;28;20054;-61
2021/06/18 06:46:26;;;;;;;36.97;33.10;;;;;;;;;;4974610;28;20432;-62
2021/06/18 06:49:11;;;;;;;34.95;31.35;;;;;;;;;;4975649;28;20691;-62
2021/06/18 06:51:56;;;;;;;33.35;29.98;;;;;;;;;;4957016;28;20048;-61
2021/06/18 06:54:42;;;;;;;37.90;34.08;;;;;;;;;;4956175;28;20047;-62
2021/06/18 06:57:28;;;;;;;37.00;33.25;;;;;;;;;;4973306;28;20046;-62
2021/06/18 07:00:13;;;;;;;35.25;31.75;;;;;;;;;;4976654;28;20058;-63
2021/06/18 07:02:58;;;;;;;33.47;30.08;;;;;;;;;;4956706;28;20630;-63
2021/06/18 07:05:44;;;;;;;34.50;31.08;;;;;;;;;;4968844;28;20595;-62
2021/06/18 07:08:29;;;;;;;33.40;29.83;;;;;;;;;;4956241;29;20055;-62
2021/06/18 07:11:14;;;;;;;32.47;29.25;;;;;;;;;;4956138;29;20070;-62
2021/06/18 07:14:00;;;;;;;31.85;28.77;;;;;;;;;;4956251;28;20081;-62
2021/06/18 07:16:45;;;;;;;32.97;29.90;;;;;;;;;;4960923;28;20061;-61
2021/06/18 07:19:30;;;;;;;30.85;27.67;;;;;;;;;;4975163;28;20065;-62
2021/06/18 07:22:19;;;;;;;27.50;24.67;;;;;;;;;;4974782;28;20050;-63
2021/06/18 07:25:06;;;;;;;30.50;27.40;;;;;;;;;;4975284;28;20042;-62
2021/06/18 07:27:51;;;;;;;28.92;26.13;;;;;;;;;;4975393;28;20521;-61
2021/06/18 07:30:36;;;;;;;29.77;26.77;;;;;;;;;;4975019;28;20102;-62
2021/06/18 07:33:22;;;;;;;31.30;28.27;;;;;;;;;;4974898;28;20166;-61
2021/06/18 07:36:07;;;;;;;31.45;28.25;;;;;;;;;;4975639;28;20050;-62
2021/06/18 07:38:53;;;;;;;31.60;28.35;;;;;;;;;;4976171;28;20131;-62
2021/06/18 07:41:38;;;;;;;33.10;29.67;;;;;;;;;;4974635;28;20042;-62
2021/06/18 07:44:24;;;;;;;30.63;27.52;;;;;;;;;;4974931;28;20120;-62
2021/06/18 07:47:09;;;;;;;32.42;29.48;;;;;;;;;;4975464;28;20050;-62
2021/06/18 07:49:55;;;;;;;33.20;30.10;;;;;;;;;;4974647;28;20156;-62
2021/06/18 07:52:40;;;;;;;31.15;28.25;;;;;;;;;;4974405;28;20057;-62
2021/06/18 07:55:26;;;;;;;34.03;30.60;;;;;;;;;;4974743;28;21492;-62
2021/06/18 07:58:12;;;;;;;32.58;29.63;;;;;;;;;;4974895;28;20058;-63
2021/06/18 08:00:57;;;;;;;32.00;28.80;;;;;;;;;;4977069;28;20524;-62
2021/06/18 08:03:42;;;;;;;29.90;26.95;;;;;;;;;;4973929;28;20494;-62
2021/06/18 08:06:28;;;;;;;32.38;29.23;;;;;;;;;;4973062;28;20051;-62
2021/06/18 08:09:13;;;;;;;35.22;31.48;;;;;;;;;;4967440;28;20053;-61
2021/06/18 08:11:58;;;;;;;31.90;28.73;;;;;;;;;;4966004;28;20098;-63
2021/06/18 08:14:44;;;;;;;32.40;29.05;;;;;;;;;;4968398;28;20057;-62
2021/06/18 08:17:29;;;;;;;33.28;30.02;;;;;;;;;;4962241;28;20061;-62
2021/06/18 08:20:16;;;;;;;29.85;26.98;;;;;;;;;;4974116;28;20137;-62
2021/06/18 08:23:01;;;;;;;31.20;27.95;;;;;;;;;;4974671;28;20046;-62
2021/06/18 08:25:48;;;;;;;30.95;28.05;;;;;;;;;;4987158;28;20831;-62
2021/06/18 08:28:34;;;;;;;28.38;25.75;;;;;;;;;;4973754;28;20086;-62
2021/06/18 08:31:19;;;;;;;25.50;23.30;;;;;;;;;;4974404;28;20579;-62
2021/06/18 08:34:06;;;;;;;24.58;22.25;;;;;;;;;;4975438;28;20050;-63
2021/06/18 08:36:52;;;;;;;23.80;21.77;;;;;;;;;;4974263;28;20049;-62
2021/06/18 08:39:37;;;;;;;23.52;21.23;;;;;;;;;;4972931;28;20077;-63
2021/06/18 08:42:23;;;;;;;22.90;20.63;;;;;;;;;;4973229;28;20229;-61
2021/06/18 08:45:09;;;;;;;24.20;21.98;;;;;;;;;;4954844;29;20050;-62
2021/06/18 08:47:54;;;;;;;24.38;21.85;;;;;;;;;;4958397;28;20151;-62
2021/06/18 08:50:39;;;;;;;22.73;20.40;;;;;;;;;;4972933;28;20047;-62
2021/06/18 08:53:25;;;;;;;22.83;20.38;;;;;;;;;;4972845;28;20061;-62
2021/06/18 08:56:10;;;;;;;20.48;18.67;;;;;;;;;;4972642;28;20062;-61
2021/06/18 08:58:56;;;;;;;19.15;17.52;;;;;;;;;;4973153;28;20043;-62
2021/06/18 09:01:41;;;;;;;20.13;18.10;;;;;;;;;;4970199;28;20556;-62
2021/06/18 09:04:26;;;;;;;20.92;19.02;;;;;;;;;;4972441;28;20057;-62
2021/06/18 09:07:12;;;;;;;18.30;16.60;;;;;;;;;;4973186;28;20058;-63
2021/06/18 09:09:57;;;;;;;17.85;16.40;;;;;;;;;;4972384;28;20121;-63
2021/06/18 09:13:01;;;;;;;16.15;14.60;;;;;;;;;;4984292;28;20641;-63
2021/06/18 09:15:46;;;;;;;14.88;13.45;;;;;;;;;;4984304;28;20413;-63
2021/06/18 09:18:36;;;;;;;11.82;10.70;;;;;;;;;;4972464;28;20073;-63
2021/06/18 09:21:22;;;;;;;15.38;10.00;;;;;;;;;;4973239;28;20051;-62
2021/06/18 09:24:07;;;;;;;14.02;9.65;;;;;;;;;;4973538;28;20059;-62
2021/06/18 09:26:52;;;;;;;24.88;9.82;;;;;;;;;;4974807;28;20050;-62
2021/06/18 09:29:38;;;;;;;17.77;10.00;;;;;;;;;;4973081;28;20050;-63
2021/06/18 09:32:23;;;;;;;12.80;9.25;;;;;;;;;;4973191;28;20414;-63
2021/06/18 09:35:09;;;;;;;12.32;8.25;;;;;;;;;;4972992;28;20584;-63
2021/06/18 09:37:55;;;;;;;9.30;7.97;;;;;;;;;;4973293;28;20062;-62
2021/06/18 09:40:40;;;;;;;9.50;7.72;;;;;;;;;;4972462;28;20046;-63
2021/06/18 09:43:26;;;;;;;6.88;6.15;;;;;;;;;;4971221;28;20158;-62
2021/06/18 09:46:11;;;;;;;10.43;7.70;;;;;;;;;;4972266;28;20169;-62
2021/06/18 09:48:57;;;;;;;8.93;6.80;;;;;;;;;;4972680;28;20054;-63
2021/06/18 09:51:58;;;;;;;10.80;6.88;;;;;;;;;;4972769;28;20402;-63
2021/06/18 09:54:45;;;;;;;4.38;3.97;;;;;;;;;;4972938;28;20125;-62
2021/06/18 09:57:40;;;;;;;5.78;4.63;;;;;;;;;;4973190;28;20054;-62
2021/06/18 10:00:26;;;;;;;8.77;4.80;;;;;;;;;;4972288;28;20069;-63
2021/06/18 10:03:11;;;;;;;38.72;7.63;;;;;;;;;;4972449;28;20049;-63
2021/06/18 10:05:57;;;;;;;8.52;5.75;;;;;;;;;;4972928;28;20412;-61
2021/06/18 10:08:42;;;;;;;8.95;4.63;;;;;;;;;;4973001;28;20105;-62
2021/06/18 10:11:30;;;;;;;13.68;5.03;;;;;;;;;;4973309;28;20053;-62
2021/06/18 10:14:15;;;;;;;14.23;4.72;;;;;;;;;;4969013;28;20128;-62
2021/06/18 10:17:01;;;;;;;4.85;4.15;;;;;;;;;;4972775;28;20520;-62
2021/06/18 10:19:46;;;;;;;5.53;3.70;;;;;;;;;;4971597;28;20057;-62
2021/06/18 10:22:32;;;;;;;6.50;3.35;;;;;;;;;;4969408;28;20118;-62
2021/06/18 10:25:18;;;;;;;6.38;4.32;;;;;;;;;;4952462;29;20055;-62
2021/06/18 10:28:06;;;;;;;5.10;4.40;;;;;;;;;;4971709;28;20402;-62
2021/06/18 10:30:52;;;;;;;5.30;4.80;;;;;;;;;;4975165;28;20133;-62
2021/06/18 10:33:38;;;;;;;6.00;4.57;;;;;;;;;;4974686;28;20434;-63
2021/06/18 10:36:28;;;;;;;12.45;4.15;;;;;;;;;;4975703;28;20071;-65
2021/06/18 10:39:22;;;;;;;6.53;4.10;;;;;;;;;;4972432;28;20508;-63
2021/06/18 10:42:07;;;;;;;5.35;4.45;;;;;;;;;;4975569;28;20049;-63
2021/06/18 10:44:55;;;;;;;8.90;4.90;;;;;;;;;;4996086;28;20054;-63
2021/06/18 10:47:44;;;;;;;5.57;4.13;;;;;;;;;;4975785;28;20470;-62
2021/06/18 10:50:46;;;;;;;5.20;3.45;;;;;;;;;;4974917;28;20051;-61
2021/06/18 10:53:31;;;;;;;5.65;4.65;;;;;;;;;;4976465;28;20055;-61
2021/06/18 10:56:17;;;;;;;5.03;3.58;;;;;;;;;;4973333;28;20163;-62
2021/06/18 10:59:05;;;;;;;4.03;3.65;;;;;;;;;;4988246;28;20449;-62
2021/06/18 11:01:51;;;;;;;3.92;3.53;;;;;;;;;;4975820;28;20043;-61
2021/06/18 11:04:44;;;;;;;5.13;4.57;;;;;;;;;;4975813;28;20149;-62
2021/06/18 11:07:31;;;;;;;5.30;4.80;;;;;;;;;;4975614;28;20057;-62
2021/06/18 11:10:28;;;;;;;5.32;4.88;;;;;;;;;;4976365;28;20074;-62
2021/06/18 11:13:17;;;;;;;7.28;4.70;;;;;;;;;;4975173;28;20082;-62
2021/06/18 11:16:03;;;;;;;5.38;4.68;;;;;;;;;;4975446;28;20051;-63
2021/06/18 11:18:48;;;;;;;4.78;4.38;;;;;;;;;;4986748;28;20134;-63
2021/06/18 11:21:33;;;;;;;6.13;3.50;;;;;;;;;;4974665;28;20047;-63
2021/06/18 11:24:38;;;;;;;8.25;3.88;;;;;;;;;;4973671;28;20636;-62
2021/06/18 11:27:26;;;;;;;5.68;3.50;;;;;;;;;;4974836;28;20239;-63
2021/06/18 11:30:27;;;;;;;4.38;3.78;;;;;;;;;;4985459;28;20057;-63
2021/06/18 11:33:13;;;;;;;6.18;4.50;;;;;;;;;;4994580;28;20572;-63
2021/06/18 11:35:58;;;;;;;4.90;4.50;;;;;;;;;;4974485;28;20057;-63
2021/06/18 11:38:43;;;;;;;4.47;4.03;;;;;;;;;;4975389;28;20043;-63
2021/06/18 11:41:29;;;;;;;8.18;4.00;;;;;;;;;;4974692;28;20178;-63
2021/06/18 11:44:16;;;;;;;6.60;3.00;;;;;;;;;;4977023;28;20258;-63
2021/06/18 11:47:02;;;;;;;5.82;4.28;;;;;;;;;;4975033;28;20053;-62
2021/06/18 11:49:47;;;;;;;5.57;4.57;;;;;;;;;;4973959;28;20133;-63
2021/06/18 11:52:32;;;;;;;10.65;4.75;;;;;;;;;;4974813;28;20054;-63
2021/06/18 11:55:18;;;;;;;9.68;4.22;;;;;;;;;;4974598;28;20533;-63
2021/06/18 11:58:03;;;;;;;3.80;3.47;;;;;;;;;;4974369;28;20173;-63
2021/06/18 12:00:48;;;;;;;3.95;3.58;;;;;;;;;;4973986;28;20093;-63
2021/06/18 12:03:34;;;;;;;6.53;4.00;;;;;;;;;;4974031;28;20055;-64
2021/06/18 12:06:22;;;;;;;19.30;5.32;;;;;;;;;;4974756;28;20053;-63
2021/06/18 12:09:14;;;;;;;8.45;5.00;;;;;;;;;;4976879;28;20086;-62
2021/06/18 12:12:00;;;;;;;13.70;6.28;;;;;;;;;;4974564;28;20050;-63
2021/06/18 12:14:54;;;;;;;5.68;4.80;;;;;;;;;;4973706;28;20474;-64
2021/06/18 12:17:39;;;;;;;12.75;4.68;;;;;;;;;;4975170;28;20053;-63
2021/06/18 12:20:25;;;;;;;9.73;4.93;;;;;;;;;;4977240;28;20050;-64
2021/06/18 12:23:14;;;;;;;6.30;4.30;;;;;;;;;;4974134;28;20049;-63
2021/06/18 12:25:59;;;;;;;5.60;4.97;;;;;;;;;;4971006;28;20053;-63
2021/06/18 12:28:44;;;;;;;6.57;5.40;;;;;;;;;;4973879;28;20050;-63
2021/06/18 12:31:31;;;;;;;5.00;4.60;;;;;;;;;;4977157;28;20115;-62
2021/06/18 12:34:17;;;;;;;15.93;5.35;;;;;;;;;;4974149;28;20057;-63
2021/06/18 12:37:08;;;;;;;5.45;4.90;;;;;;;;;;4973322;28;20055;-62
2021/06/18 12:39:59;;;;;;;5.70;5.07;;;;;;;;;;4973522;28;20101;-63
2021/06/18 12:42:47;;;;;;;6.18;5.03;;;;;;;;;;4973777;28;20051;-63
2021/06/18 12:45:32;;;;;;;7.65;4.45;;;;;;;;;;4973313;28;20047;-63
2021/06/18 12:48:19;;;;;;;6.43;4.78;;;;;;;;;;4973818;28;20053;-62
2021/06/18 12:51:04;;;;;;;5.88;5.38;;;;;;;;;;4985926;28;20046;-63
2021/06/18 12:53:50;;;;;;;5.30;4.90;;;;;;;;;;4972939;28;20061;-63
2021/06/18 12:56:42;;;;;;;6.05;5.45;;;;;;;;;;4973441;28;20050;-63
2021/06/18 12:59:35;;;;;;;7.60;6.03;;;;;;;;;;4972757;28;20485;-64
2021/06/18 13:02:32;;;;;;;6.38;5.78;;;;;;;;;;4959298;28;20057;-62
2021/06/18 13:05:19;;;;;;;6.07;5.50;;;;;;;;;;4973481;28;20042;-63
2021/06/18 13:08:17;;;;;;;6.20;5.28;;;;;;;;;;4972917;28;20266;-62
2021/06/18 13:11:03;;;;;;;6.05;5.45;;;;;;;;;;4972513;28;20045;-63
2021/06/18 13:14:10;;;;;;;10.05;5.45;;;;;;;;;;4984906;28;20054;-64
2021/06/18 13:16:59;;;;;;;6.13;5.20;;;;;;;;;;4973557;28;20074;-63
2021/06/18 13:19:51;;;;;;;5.18;4.72;;;;;;;;;;4971947;28;20122;-63
2021/06/18 13:22:36;;;;;;;8.93;4.35;;;;;;;;;;4972794;28;20132;-63
2021/06/18 13:25:21;;;;;;;6.47;4.80;;;;;;;;;;4972957;28;20173;-63
2021/06/18 13:28:07;;;;;;;5.20;4.70;;;;;;;;;;4985288;28;20127;-63
2021/06/18 13:30:55;;;;;;;6.13;4.60;;;;;;;;;;4974282;28;20050;-63
2021/06/18 13:33:41;;;;;;;6.00;4.47;;;;;;;;;;4984531;28;20051;-64
2021/06/18 13:36:27;;;;;;;6.00;4.65;;;;;;;;;;4971359;28;20053;-63
2021/06/18 13:39:15;;;;;;;6.63;5.00;;;;;;;;;;4972579;28;20061;-63
2021/06/18 13:42:00;;;;;;;7.40;4.65;;;;;;;;;;4972876;28;20113;-63
2021/06/18 13:44:46;;;;;;;7.05;5.40;;;;;;;;;;4958941;28;20109;-64
2021/06/18 13:47:56;;;;;;;5.80;5.28;;;;;;;;;;4966247;28;20051;-64
2021/06/18 13:50:47;;;;;;;6.20;4.88;;;;;;;;;;4970281;28;20417;-63
2021/06/18 13:53:32;;;;;;;7.22;4.68;;;;;;;;;;4973065;28;20050;-64
2021/06/18 13:56:18;;;;;;;6.75;4.90;;;;;;;;;;4972322;28;20046;-63
2021/06/18 13:59:03;;;;;;;8.55;6.10;;;;;;;;;;4973286;28;20121;-64
2021/06/18 14:01:49;;;;;;;6.95;5.57;;;;;;;;;;4972971;28;20060;-63
2021/06/18 14:04:34;;;;;;;5.18;4.68;;;;;;;;;;4974565;28;20156;-63
2021/06/18 14:07:20;;;;;;;7.20;5.30;;;;;;;;;;4976933;28;20051;-63
2021/06/18 14:10:06;;;;;;;6.10;5.32;;;;;;;;;;4976415;28;20057;-63
2021/06/18 14:12:51;;;;;;;5.68;5.18;;;;;;;;;;4977248;28;20104;-64
2021/06/18 14:15:39;;;;;;;4.93;4.53;;;;;;;;;;4978403;28;20105;-64
2021/06/18 14:18:24;;;;;;;5.82;5.20;;;;;;;;;;4977549;28;20363;-64
2021/06/18 14:21:10;;;;;;;7.78;5.20;;;;;;;;;;4987874;28;20153;-63
2021/06/18 14:23:58;;;;;;;5.22;4.75;;;;;;;;;;4977676;28;20576;-63
2021/06/18 14:26:44;;;;;;;7.57;6.18;;;;;;;;;;4976731;28;20214;-63
2021/06/18 14:29:29;;;;;;;6.57;5.80;;;;;;;;;;4957829;29;20422;-62
2021/06/18 14:32:16;;;;;;;7.20;6.20;;;;;;;;;;4977218;28;20081;-64
2021/06/18 14:35:02;;;;;;;7.45;5.57;;;;;;;;;;4976615;28;20481;-63
2021/06/18 14:37:47;;;;;;;5.93;5.35;;;;;;;;;;4977759;28;20441;-64
2021/06/18 14:40:32;;;;;;;6.75;5.35;;;;;;;;;;4976873;28;20093;-64
2021/06/18 14:43:18;;;;;;;6.13;5.50;;;;;;;;;;4987984;28;20412;-62
2021/06/18 14:46:03;;;;;;;6.75;5.90;;;;;;;;;;4979661;28;20137;-62
2021/06/18 14:48:48;;;;;;;6.97;6.00;;;;;;;;;;4989028;28;20054;-63
2021/06/18 14:51:35;;;;;;;6.60;6.00;;;;;;;;;;4976383;28;20054;-62
2021/06/18 14:54:20;;;;;;;6.85;6.20;;;;;;;;;;4956567;29;20133;-62
2021/06/18 14:57:06;;;;;;;6.55;6.00;;;;;;;;;;4958867;28;20058;-62
2021/06/18 14:59:52;;;;;;;7.97;5.55;;;;;;;;;;4974955;28;20613;-64
2021/06/18 15:02:37;;;;;;;8.75;6.10;;;;;;;;;;4975594;28;20057;-62
2021/06/18 15:05:23;;;;;;;7.63;6.60;;;;;;;;;;4975160;28;20121;-62
2021/06/18 15:08:08;;;;;;;15.73;6.65;;;;;;;;;;4975573;28;20047;-62
2021/06/18 15:10:54;;;;;;;9.88;5.88;;;;;;;;;;4975444;28;20045;-62
2021/06/18 15:13:40;;;;;;;7.90;5.97;;;;;;;;;;4975430;28;20053;-63
2021/06/18 15:16:25;;;;;;;6.80;6.20;;;;;;;;;;4974847;28;20525;-63
2021/06/18 15:19:11;;;;;;;6.38;5.82;;;;;;;;;;4974168;28;20077;-63
2021/06/18 15:21:56;;;;;;;7.15;6.03;;;;;;;;;;4975349;28;20057;-63
2021/06/18 15:24:41;;;;;;;5.68;5.18;;;;;;;;;;4976915;28;20049;-64
2021/06/18 15:27:27;;;;;;;6.45;5.78;;;;;;;;;;4976455;28;20082;-63
2021/06/18 15:30:13;;;;;;;6.10;5.30;;;;;;;;;;4977904;28;20050;-63
2021/06/18 15:32:58;;;;;;;7.80;6.47;;;;;;;;;;4975203;28;20653;-63
2021/06/18 15:35:43;;;;;;;7.57;5.47;;;;;;;;;;4974864;28;20126;-63
2021/06/18 15:38:28;;;;;;;7.78;5.60;;;;;;;;;;4973740;28;20043;-63
2021/06/18 15:41:14;;;;;;;7.45;6.60;;;;;;;;;;4971552;28;20046;-63
2021/06/18 15:43:59;;;;;;;8.00;5.95;;;;;;;;;;4973934;28;20117;-63
2021/06/18 15:46:46;;;;;;;6.63;5.95;;;;;;;;;;4972920;28;20162;-63
2021/06/18 15:49:32;;;;;;;7.60;5.85;;;;;;;;;;4973739;28;20564;-63
2021/06/18 15:52:17;;;;;;;7.45;6.60;;;;;;;;;;4977372;28;20081;-63
2021/06/18 15:55:03;;;;;;;7.90;5.40;;;;;;;;;;4973943;28;20521;-63
2021/06/18 15:57:49;;;;;;;8.32;6.28;;;;;;;;;;4974648;28;20568;-63
2021/06/18 16:00:35;;;;;;;6.88;6.22;;;;;;;;;;4974631;28;20499;-64
2021/06/18 16:03:20;;;;;;;9.02;6.30;;;;;;;;;;4972552;28;20643;-64
2021/06/18 16:06:05;;;;;;;6.55;5.97;;;;;;;;;;4975633;28;20113;-63
2021/06/18 16:08:51;;;;;;;7.07;6.25;;;;;;;;;;4970369;28;20552;-63
2021/06/18 16:11:37;;;;;;;7.35;6.75;;;;;;;;;;4969606;28;20050;-64
2021/06/18 16:14:22;;;;;;;7.57;6.65;;;;;;;;;;4965414;28;20101;-64
2021/06/18 16:17:08;;;;;;;6.93;6.35;;;;;;;;;;4984721;28;20132;-63
2021/06/18 16:19:53;;;;;;;9.30;7.30;;;;;;;;;;4972697;28;20070;-63
2021/06/18 16:22:43;;;;;;;8.73;7.18;;;;;;;;;;4982871;28;20046;-63